Time,TemperatureF,DewpointF,PressureIn,WindDirection,WindDirectionDegrees,WindSpeedMPH,WindSpeedGustMPH,Humidity,HourlyPrecipIn,Conditions,Clouds,dailyrainin,SoftwareType,DateUTC
2013-02-10 00:00:00,18.5,-13.1,29.85,ENE,66,0.0,6.3,23,0.00,,CLR,0.00,VWS V14.00,2013-02-10 05:00:00,
2013-02-10 00:01:00,18.5,-13.1,29.85,ENE,66,0.0,6.3,23,0.00,,CLR,0.00,VWS V14.00,2013-02-10 05:01:00,
2013-02-10 00:06:00,18.3,-13.3,29.85,NNW,331,0.0,2.2,23,0.00,,CLR,0.00,VWS V14.00,2013-02-10 05:06:00,
2013-02-10 00:11:00,18.3,-13.3,29.85,NE,41,3.1,3.6,23,0.00,,CLR,0.00,VWS V14.00,2013-02-10 05:11:00,
2013-02-10 00:16:00,18.3,-13.3,29.85,NNE,19,0.0,8.3,23,0.00,,CLR,0.00,VWS V14.00,2013-02-10 05:16:00,
2013-02-10 00:21:00,18.3,-13.3,29.85,NW,309,8.1,8.3,23,0.00,,CLR,0.00,VWS V14.00,2013-02-10 05:21:00,
2013-02-10 00:26:00,18.3,-13.3,29.85,NW,305,3.6,5.8,23,0.00,,CLR,0.00,VWS V14.00,2013-02-10 05:26:00,
2013-02-10 00:31:00,18.3,-13.3,29.85,NNW,333,3.1,5.8,23,0.00,,CLR,0.00,VWS V14.00,2013-02-10 05:31:00,
2013-02-10 00:36:00,18.1,-13.4,29.85,NW,320,2.2,5.8,23,0.00,,CLR,0.00,VWS V14.00,2013-02-10 05:36:00,
2013-02-10 00:41:00,18.1,-13.4,29.85,NNW,334,3.1,6.3,23,0.00,,CLR,0.00,VWS V14.00,2013-02-10 05:41:00,
2013-02-10 00:46:00,18.1,-13.4,29.85,North,353,2.7,4.9,23,0.00,,CLR,0.00,VWS V14.00,2013-02-10 05:46:00,
2013-02-10 00:51:00,18.0,-13.6,29.85,NNE,26,2.7,4.9,23,0.00,,CLR,0.00,VWS V14.00,2013-02-10 05:51:00,
2013-02-10 00:56:00,18.0,-13.6,29.85,NE,43,4.9,4.9,23,0.00,,CLR,0.00,VWS V14.00,2013-02-10 05:56:00,
2013-02-10 01:01:00,18.0,-13.6,29.85,NW,311,8.3,8.3,23,0.00,,CLR,0.00,VWS V14.00,2013-02-10 06:01:00,
2013-02-10 01:06:00,18.0,-13.6,29.85,NE,52,4.0,5.4,23,0.00,,CLR,0.00,VWS V14.00,2013-02-10 06:06:00,
2013-02-10 01:11:00,17.8,-13.7,29.85,ENE,71,4.0,5.4,23,0.00,,CLR,0.00,VWS V14.00,2013-02-10 06:11:00,
2013-02-10 01:16:00,17.8,-13.7,29.85,West,279,3.6,5.4,23,0.00,,CLR,0.00,VWS V14.00,2013-02-10 06:16:00,
2013-02-10 01:21:00,17.6,-13.9,29.85,WNW,298,6.3,6.3,23,0.00,,CLR,0.00,VWS V14.00,2013-02-10 06:21:00,
2013-02-10 01:26:00,17.6,-13.9,29.85,NW,321,2.7,2.7,23,0.00,,CLR,0.00,VWS V14.00,2013-02-10 06:26:00,
2013-02-10 01:31:00,17.6,-13.9,29.85,NNW,334,5.4,5.4,23,0.00,,CLR,0.00,VWS V14.00,2013-02-10 06:31:00,
2013-02-10 01:36:00,17.8,-13.7,29.85,North,8,2.2,9.6,23,0.00,,CLR,0.00,VWS V14.00,2013-02-10 06:36:00,
2013-02-10 01:41:00,17.8,-13.7,29.85,NW,311,0.0,9.6,23,0.00,,CLR,0.00,VWS V14.00,2013-02-10 06:41:00,
2013-02-10 01:46:00,17.8,-13.7,29.85,WNW,294,3.1,7.6,23,0.00,,CLR,0.00,VWS V14.00,2013-02-10 06:46:00,
2013-02-10 01:51:00,17.8,-13.7,29.85,NNW,331,3.6,7.6,23,0.00,,CLR,0.00,VWS V14.00,2013-02-10 06:51:00,
2013-02-10 01:56:00,17.6,-13.9,29.85,NW,317,2.2,7.6,23,0.00,,CLR,0.00,VWS V14.00,2013-02-10 06:56:00,
2013-02-10 02:01:00,17.6,-13.9,29.85,NW,316,0.0,7.6,23,0.00,,CLR,0.00,VWS V14.00,2013-02-10 07:01:00,
2013-02-10 02:06:00,17.4,-14.0,29.85,WNW,301,4.9,4.9,23,0.00,,CLR,0.00,VWS V14.00,2013-02-10 07:06:00,
2013-02-10 02:11:00,17.2,-14.2,29.85,WNW,293,3.6,4.9,23,0.00,,CLR,0.00,VWS V14.00,2013-02-10 07:11:00,
2013-02-10 02:16:00,17.2,-14.2,29.85,NNW,335,2.2,4.9,23,0.00,,CLR,0.00,VWS V14.00,2013-02-10 07:16:00,
2013-02-10 02:21:00,17.1,-14.3,29.88,NW,310,5.4,5.4,23,0.00,,CLR,0.00,VWS V14.00,2013-02-10 07:21:00,
2013-02-10 02:26:00,17.1,-14.3,29.88,NNW,333,0.0,8.1,23,0.00,,CLR,0.00,VWS V14.00,2013-02-10 07:26:00,
2013-02-10 02:31:00,16.9,-14.5,29.88,NNW,332,0.0,8.1,23,0.00,,CLR,0.00,VWS V14.00,2013-02-10 07:31:00,
2013-02-10 02:36:00,16.9,-14.5,29.88,NW,307,3.6,8.1,23,0.00,,CLR,0.00,VWS V14.00,2013-02-10 07:36:00,
2013-02-10 02:41:00,16.9,-14.5,29.88,WNW,303,4.0,8.1,23,0.00,,CLR,0.00,VWS V14.00,2013-02-10 07:41:00,
2013-02-10 02:46:00,16.7,-14.6,29.88,WNW,284,0.0,4.0,23,0.00,,CLR,0.00,VWS V14.00,2013-02-10 07:46:00,
2013-02-10 02:51:00,16.7,-14.6,29.88,North,8,0.0,4.0,23,0.00,,CLR,0.00,VWS V14.00,2013-02-10 07:51:00,
2013-02-10 02:56:00,16.7,-14.6,29.88,North,353,0.0,4.0,23,0.00,,CLR,0.00,VWS V14.00,2013-02-10 07:56:00,
2013-02-10 03:01:00,16.3,-15.0,29.88,NW,317,3.1,4.0,23,0.00,,CLR,0.00,VWS V14.00,2013-02-10 08:01:00,
2013-02-10 03:06:00,16.5,-14.8,29.88,NW,308,0.0,3.1,23,0.00,,CLR,0.00,VWS V14.00,2013-02-10 08:06:00,
2013-02-10 03:11:00,16.3,-15.0,29.88,East,84,0.0,3.1,23,0.00,,CLR,0.00,VWS V14.00,2013-02-10 08:11:00,
2013-02-10 03:16:00,16.0,-15.3,29.88,East,93,0.0,3.1,23,0.00,,CLR,0.00,VWS V14.00,2013-02-10 08:16:00,
2013-02-10 03:21:00,15.8,-14.6,29.88,NE,42,0.0,3.1,24,0.00,,CLR,0.00,VWS V14.00,2013-02-10 08:21:00,
2013-02-10 03:26:00,15.8,-14.6,29.88,ESE,115,0.0,0.0,24,0.00,,CLR,0.00,VWS V14.00,2013-02-10 08:26:00,
2013-02-10 03:31:00,15.8,-14.6,29.88,North,350,3.1,4.9,24,0.00,,CLR,0.00,VWS V14.00,2013-02-10 08:31:00,
2013-02-10 03:36:00,15.8,-14.6,29.85,North,357,0.0,4.9,24,0.00,,CLR,0.00,VWS V14.00,2013-02-10 08:36:00,
2013-02-10 03:41:00,16.0,-15.3,29.85,NNW,348,5.4,6.3,23,0.00,,CLR,0.00,VWS V14.00,2013-02-10 08:41:00,
2013-02-10 03:46:00,16.0,-15.3,29.85,NW,315,0.0,2.7,23,0.00,,CLR,0.00,VWS V14.00,2013-02-10 08:46:00,
2013-02-10 03:51:00,16.0,-15.3,29.85,NW,305,4.5,4.5,23,0.00,,CLR,0.00,VWS V14.00,2013-02-10 08:51:00,
2013-02-10 03:56:00,16.0,-15.3,29.85,NNW,329,0.0,4.5,23,0.00,,CLR,0.00,VWS V14.00,2013-02-10 08:56:00,
2013-02-10 04:01:00,16.0,-15.3,29.85,NNW,344,0.0,4.5,23,0.00,,CLR,0.00,VWS V14.00,2013-02-10 09:01:00,
2013-02-10 04:06:00,15.8,-14.6,29.85,NNW,344,0.0,0.0,24,0.00,,CLR,0.00,VWS V14.00,2013-02-10 09:06:00,
2013-02-10 04:11:00,15.8,-14.6,29.85,NNW,329,0.0,0.0,24,0.00,,CLR,0.00,VWS V14.00,2013-02-10 09:11:00,
2013-02-10 04:16:00,15.8,-14.6,29.85,NW,325,0.0,0.0,24,0.00,,CLR,0.00,VWS V14.00,2013-02-10 09:16:00,
2013-02-10 04:21:00,15.4,-14.9,29.85,North,0,0.0,0.0,24,0.00,,CLR,0.00,VWS V14.00,2013-02-10 09:21:00,
2013-02-10 04:26:00,15.3,-15.1,29.85,North,0,0.0,0.0,24,0.00,,CLR,0.00,VWS V14.00,2013-02-10 09:26:00,
2013-02-10 04:31:00,15.1,-15.2,29.85,North,357,0.0,0.0,24,0.00,,CLR,0.00,VWS V14.00,2013-02-10 09:31:00,
2013-02-10 04:36:00,15.1,-15.2,29.85,SSE,153,0.0,0.0,24,0.00,,CLR,0.00,VWS V14.00,2013-02-10 09:36:00,
2013-02-10 04:41:00,14.9,-15.4,29.85,SSE,155,0.0,0.0,24,0.00,,CLR,0.00,VWS V14.00,2013-02-10 09:41:00,
2013-02-10 04:46:00,14.9,-15.4,29.85,SE,144,0.0,0.0,24,0.00,,CLR,0.00,VWS V14.00,2013-02-10 09:46:00,
2013-02-10 04:51:00,14.7,-15.5,29.85,SE,144,0.0,0.0,24,0.00,,CLR,0.00,VWS V14.00,2013-02-10 09:51:00,
2013-02-10 04:56:00,14.5,-15.7,29.85,SE,144,0.0,0.0,24,0.00,,CLR,0.00,VWS V14.00,2013-02-10 09:56:00,
2013-02-10 05:01:00,14.4,-15.8,29.85,SE,144,0.0,0.0,24,0.00,,CLR,0.00,VWS V14.00,2013-02-10 10:01:00,
2013-02-10 05:06:00,14.0,-16.1,29.85,SE,146,0.0,0.0,24,0.00,,CLR,0.00,VWS V14.00,2013-02-10 10:06:00,
2013-02-10 05:11:00,13.6,-16.4,29.85,SSE,151,3.6,4.0,24,0.00,,CLR,0.00,VWS V14.00,2013-02-10 10:11:00,
2013-02-10 05:16:00,13.5,-16.6,29.85,SSE,151,0.0,4.0,24,0.00,,CLR,0.00,VWS V14.00,2013-02-10 10:16:00,
2013-02-10 05:21:00,13.3,-16.8,29.88,SSE,151,0.0,4.0,24,0.00,,CLR,0.00,VWS V14.00,2013-02-10 10:21:00,
2013-02-10 05:26:00,13.3,-16.8,29.88,SSE,151,0.0,0.0,24,0.00,,CLR,0.00,VWS V14.00,2013-02-10 10:26:00,
2013-02-10 05:31:00,13.1,-16.9,29.88,SSE,151,0.0,0.0,24,0.00,,CLR,0.00,VWS V14.00,2013-02-10 10:31:00,
2013-02-10 05:36:00,13.3,-16.8,29.88,SSE,151,0.0,0.0,24,0.00,,CLR,0.00,VWS V14.00,2013-02-10 10:36:00,
2013-02-10 05:41:00,13.5,-16.6,29.88,SSE,151,0.0,0.0,24,0.00,,CLR,0.00,VWS V14.00,2013-02-10 10:41:00,
2013-02-10 05:46:00,13.6,-16.4,29.88,SSE,151,0.0,0.0,24,0.00,,CLR,0.00,VWS V14.00,2013-02-10 10:46:00,
2013-02-10 05:51:00,14.4,-15.8,29.88,SSE,151,0.0,0.0,24,0.00,,CLR,0.00,VWS V14.00,2013-02-10 10:51:00,
2013-02-10 05:56:00,14.5,-15.7,29.88,SSE,151,0.0,0.0,24,0.00,,CLR,0.00,VWS V14.00,2013-02-10 10:56:00,
2013-02-10 06:01:00,14.5,-15.7,29.88,SSE,151,0.0,0.0,24,0.00,,CLR,0.00,VWS V14.00,2013-02-10 11:01:00,
2013-02-10 06:06:00,14.5,-15.7,29.91,SSE,151,0.0,0.0,24,0.00,,CLR,0.00,VWS V14.00,2013-02-10 11:06:00,
2013-02-10 06:11:00,14.5,-15.7,29.91,SSE,151,0.0,0.0,24,0.00,,CLR,0.00,VWS V14.00,2013-02-10 11:11:00,
2013-02-10 06:16:00,14.5,-15.7,29.91,SSE,151,0.0,0.0,24,0.00,,CLR,0.00,VWS V14.00,2013-02-10 11:16:00,
2013-02-10 06:21:00,14.4,-15.8,29.91,SSE,151,0.0,0.0,24,0.00,,CLR,0.00,VWS V14.00,2013-02-10 11:21:00,
2013-02-10 06:26:00,14.4,-15.8,29.91,SSE,151,0.0,0.0,24,0.00,,CLR,0.00,VWS V14.00,2013-02-10 11:26:00,
2013-02-10 06:31:00,14.2,-16.0,29.91,SSE,151,0.0,0.0,24,0.00,,CLR,0.00,VWS V14.00,2013-02-10 11:31:00,
2013-02-10 06:36:00,14.0,-16.1,29.91,SSE,151,0.0,0.0,24,0.00,,CLR,0.00,VWS V14.00,2013-02-10 11:36:00,
2013-02-10 06:41:00,13.6,-16.4,29.91,SSE,151,0.0,0.0,24,0.00,,CLR,0.00,VWS V14.00,2013-02-10 11:41:00,
2013-02-10 06:46:00,13.5,-16.6,29.91,SSE,151,0.0,0.0,24,0.00,,CLR,0.00,VWS V14.00,2013-02-10 11:46:00,
2013-02-10 06:51:00,12.9,-17.1,29.91,SSE,151,0.0,0.0,24,0.00,,CLR,0.00,VWS V14.00,2013-02-10 11:51:00,
2013-02-10 06:56:00,12.7,-17.2,29.91,SSE,151,0.0,0.0,24,0.00,,CLR,0.00,VWS V14.00,2013-02-10 11:56:00,
2013-02-10 07:01:00,12.6,-17.4,29.91,SSE,151,0.0,0.0,24,0.00,,CLR,0.00,VWS V14.00,2013-02-10 12:01:00,
2013-02-10 07:06:00,12.4,-17.5,29.91,SSE,151,2.7,2.7,24,0.00,,CLR,0.00,VWS V14.00,2013-02-10 12:06:00,
2013-02-10 07:11:00,12.4,-17.5,29.91,SSE,151,0.0,2.7,24,0.00,,CLR,0.00,VWS V14.00,2013-02-10 12:11:00,
2013-02-10 07:16:00,12.2,-17.7,29.91,SSE,151,0.0,2.7,24,0.00,,CLR,0.00,VWS V14.00,2013-02-10 12:16:00,
2013-02-10 07:21:00,12.2,-17.7,29.91,SSE,151,0.0,2.7,24,0.00,,CLR,0.00,VWS V14.00,2013-02-10 12:21:00,
2013-02-10 07:26:00,12.4,-17.5,29.91,SSE,151,0.0,0.0,24,0.00,,CLR,0.00,VWS V14.00,2013-02-10 12:26:00,
2013-02-10 07:31:00,12.4,-17.5,29.91,SSE,151,0.0,0.0,24,0.00,,CLR,0.00,VWS V14.00,2013-02-10 12:31:00,
2013-02-10 07:36:00,12.6,-17.4,29.91,SSE,151,0.0,0.0,24,0.00,,CLR,0.00,VWS V14.00,2013-02-10 12:36:00,
2013-02-10 07:41:00,12.6,-17.4,29.91,SSE,151,0.0,0.0,24,0.00,,CLR,0.00,VWS V14.00,2013-02-10 12:41:00,
2013-02-10 07:46:00,12.6,-17.4,29.91,SSE,151,0.0,0.0,24,0.00,,CLR,0.00,VWS V14.00,2013-02-10 12:46:00,
2013-02-10 07:51:00,12.9,-17.1,29.91,SSE,151,0.0,0.0,24,0.00,,CLR,0.00,VWS V14.00,2013-02-10 12:51:00,
2013-02-10 07:56:00,13.8,-16.3,29.91,SSE,151,0.0,0.0,24,0.00,,CLR,0.00,VWS V14.00,2013-02-10 12:56:00,
2013-02-10 08:01:00,14.7,-11.8,29.91,SSE,151,0.0,0.0,29,0.00,,CLR,0.00,VWS V14.00,2013-02-10 13:01:00,
2013-02-10 08:06:00,14.7,-11.8,29.94,SSE,151,0.0,0.0,29,0.00,,CLR,0.00,VWS V14.00,2013-02-10 13:06:00,
2013-02-10 08:11:00,16.7,-12.2,29.94,SSE,151,0.0,0.0,26,0.00,,CLR,0.00,VWS V14.00,2013-02-10 13:11:00,
2013-02-10 08:16:00,18.5,-11.4,29.94,NW,318,0.0,0.0,25,0.00,,CLR,0.00,VWS V14.00,2013-02-10 13:16:00,
2013-02-10 08:21:00,19.2,-12.5,29.94,NNW,330,3.1,3.1,23,0.00,,CLR,0.00,VWS V14.00,2013-02-10 13:21:00,
2013-02-10 08:26:00,19.8,-12.9,29.94,NNW,340,0.0,0.0,22,0.00,,CLR,0.00,VWS V14.00,2013-02-10 13:26:00,
2013-02-10 08:31:00,19.8,-12.9,29.94,East,81,0.0,0.0,22,0.00,,CLR,0.00,VWS V14.00,2013-02-10 13:31:00,
2013-02-10 08:36:00,20.7,-12.2,29.94,NW,321,0.0,0.0,22,0.00,,CLR,0.00,VWS V14.00,2013-02-10 13:36:00,
2013-02-10 08:41:00,20.8,-12.0,29.94,NW,322,0.0,3.1,22,0.00,,CLR,0.00,VWS V14.00,2013-02-10 13:41:00,
2013-02-10 08:46:00,21.2,-11.7,29.94,NNE,14,0.0,0.0,22,0.00,,CLR,0.00,VWS V14.00,2013-02-10 13:46:00,
2013-02-10 08:51:00,21.4,-11.5,29.94,NNE,19,0.0,0.0,22,0.00,,CLR,0.00,VWS V14.00,2013-02-10 13:51:00,
2013-02-10 08:57:00,21.6,-11.4,29.94,WNW,299,0.0,0.0,22,0.00,,CLR,0.00,VWS V14.00,2013-02-10 13:57:00,
2013-02-10 09:02:00,22.1,-10.9,29.94,NW,309,4.0,4.0,22,0.00,,CLR,0.00,VWS V14.00,2013-02-10 14:02:00,
2013-02-10 09:07:00,22.3,-10.8,29.94,North,10,2.2,4.0,22,0.00,,CLR,0.00,VWS V14.00,2013-02-10 14:07:00,
2013-02-10 09:12:00,22.5,-10.6,29.94,NNW,342,0.0,4.0,22,0.00,,CLR,0.00,VWS V14.00,2013-02-10 14:12:00,
2013-02-10 09:17:00,22.8,-10.3,29.94,North,353,0.0,4.0,22,0.00,,CLR,0.00,VWS V14.00,2013-02-10 14:17:00,
2013-02-10 09:22:00,23.4,-9.9,29.94,ENE,59,0.0,4.0,22,0.00,,CLR,0.00,VWS V14.00,2013-02-10 14:22:00,
2013-02-10 09:27:00,23.7,-9.6,29.94,ENE,72,0.0,0.0,22,0.00,,CLR,0.00,VWS V14.00,2013-02-10 14:27:00,
2013-02-10 09:32:00,24.4,-8.9,29.94,SE,128,0.0,2.2,22,0.00,,CLR,0.00,VWS V14.00,2013-02-10 14:32:00,
2013-02-10 09:37:00,25.0,-9.4,29.97,East,96,0.0,2.2,21,0.00,,CLR,0.00,VWS V14.00,2013-02-10 14:37:00,
2013-02-10 09:42:00,25.3,-9.1,29.97,NNE,33,0.0,2.2,21,0.00,,CLR,0.00,VWS V14.00,2013-02-10 14:42:00,
2013-02-10 09:47:00,25.5,-9.0,29.97,NNW,332,0.0,0.0,21,0.00,,CLR,0.00,VWS V14.00,2013-02-10 14:47:00,
2013-02-10 09:52:00,25.5,-9.0,29.97,NW,318,0.0,3.6,21,0.00,,CLR,0.00,VWS V14.00,2013-02-10 14:52:00,
2013-02-10 09:57:00,26.1,-8.5,29.97,NW,318,0.0,3.6,21,0.00,,CLR,0.04,VWS V14.00,2013-02-10 14:57:00,
2013-02-10 10:02:00,26.4,-8.2,29.97,NW,310,0.0,3.6,21,0.00,,CLR,0.04,VWS V14.00,2013-02-10 15:02:00,
2013-02-10 10:07:00,26.4,-8.2,29.97,NW,311,0.0,0.0,21,0.00,,CLR,0.04,VWS V14.00,2013-02-10 15:07:00,
2013-02-10 10:12:00,27.7,-7.2,29.97,ENE,76,0.0,0.0,21,0.00,,CLR,0.04,VWS V14.00,2013-02-10 15:12:00,
2013-02-10 10:17:00,28.6,-7.4,29.97,North,357,0.0,0.0,20,0.00,,CLR,0.04,VWS V14.00,2013-02-10 15:17:00,
2013-02-10 10:22:00,28.9,-7.1,29.97,SE,126,0.0,0.0,20,0.00,,CLR,0.04,VWS V14.00,2013-02-10 15:22:00,
2013-02-10 10:27:00,29.3,-6.8,29.97,SE,128,0.0,0.0,20,0.00,,CLR,0.04,VWS V14.00,2013-02-10 15:27:00,
2013-02-10 10:32:00,29.1,-6.9,29.97,NNE,29,0.0,3.6,20,0.00,,CLR,0.04,VWS V14.00,2013-02-10 15:32:00,
2013-02-10 10:37:00,29.1,-6.9,29.97,SE,141,0.0,3.6,20,0.00,,CLR,0.04,VWS V14.00,2013-02-10 15:37:00,
2013-02-10 10:42:00,30.0,-6.2,29.97,NNW,339,2.2,3.6,20,0.00,,CLR,0.04,VWS V14.00,2013-02-10 15:42:00,
2013-02-10 10:47:00,30.0,-6.2,29.97,NW,306,2.7,4.9,20,0.00,,CLR,0.04,VWS V14.00,2013-02-10 15:47:00,
2013-02-10 10:52:00,29.8,-6.3,29.97,NW,315,3.1,4.9,20,0.00,,CLR,0.04,VWS V14.00,2013-02-10 15:52:00,
2013-02-10 10:57:00,30.2,-6.0,29.97,NW,321,0.0,4.9,20,0.00,,CLR,0.04,VWS V14.00,2013-02-10 15:57:00,
2013-02-10 11:02:00,30.6,-5.7,29.97,WNW,301,0.0,4.9,20,0.00,,CLR,0.04,VWS V14.00,2013-02-10 16:02:00,
2013-02-10 11:07:00,31.3,-5.1,29.97,ENE,75,0.0,2.2,20,0.00,,CLR,0.04,VWS V14.00,2013-02-10 16:07:00,
2013-02-10 11:12:00,32.2,-4.4,29.97,NW,326,0.0,2.2,20,0.00,,CLR,0.04,VWS V14.00,2013-02-10 16:12:00,
2013-02-10 11:17:00,32.0,-4.5,29.97,NNW,345,3.1,4.9,20,0.00,,CLR,0.04,VWS V14.00,2013-02-10 16:17:00,
2013-02-10 11:22:00,32.0,-4.5,29.97,NW,324,0.0,4.9,20,0.00,,CLR,0.04,VWS V14.00,2013-02-10 16:22:00,
2013-02-10 11:27:00,32.4,-4.2,29.97,NW,322,5.4,5.4,20,0.00,,CLR,0.04,VWS V14.00,2013-02-10 16:27:00,
2013-02-10 11:32:00,32.4,-4.2,29.97,SE,129,0.0,5.4,20,0.00,,CLR,0.04,VWS V14.00,2013-02-10 16:32:00,
2013-02-10 11:37:00,33.8,-3.0,29.94,ESE,110,0.0,5.4,20,0.00,,CLR,0.04,VWS V14.00,2013-02-10 16:37:00,
2013-02-10 11:42:00,34.9,-2.1,29.94,ESE,105,0.0,5.4,20,0.00,,CLR,0.04,VWS V14.00,2013-02-10 16:42:00,
2013-02-10 11:47:00,35.4,-1.6,29.94,ESE,109,0.0,0.0,20,0.00,,CLR,0.04,VWS V14.00,2013-02-10 16:47:00,
2013-02-10 11:52:00,35.2,-1.8,29.94,ESE,103,0.0,0.0,20,0.00,,CLR,0.04,VWS V14.00,2013-02-10 16:52:00,
2013-02-10 11:57:00,36.1,-2.1,29.94,East,97,0.0,0.0,19,0.00,,CLR,0.04,VWS V14.00,2013-02-10 16:57:00,
2013-02-10 12:02:00,36.5,-1.8,29.94,East,92,0.0,0.0,19,0.00,,CLR,0.04,VWS V14.00,2013-02-10 17:02:00,
2013-02-10 12:07:00,36.1,-2.1,29.94,NE,43,0.0,2.2,19,0.00,,CLR,0.04,VWS V14.00,2013-02-10 17:07:00,
2013-02-10 12:12:00,36.1,-2.1,29.94,SE,129,0.0,2.2,19,0.00,,CLR,0.04,VWS V14.00,2013-02-10 17:12:00,
2013-02-10 12:17:00,36.3,-2.0,29.91,East,95,3.1,3.1,19,0.00,,CLR,0.04,VWS V14.00,2013-02-10 17:17:00,
2013-02-10 12:22:00,36.1,-2.1,29.91,ESE,111,0.0,3.1,19,0.00,,CLR,0.04,VWS V14.00,2013-02-10 17:22:00,
2013-02-10 12:27:00,36.7,-1.7,29.91,ESE,113,0.0,0.0,19,0.00,,CLR,0.04,VWS V14.00,2013-02-10 17:27:00,
2013-02-10 12:32:00,36.9,-1.5,29.91,NE,44,0.0,0.0,19,0.00,,CLR,0.04,VWS V14.00,2013-02-10 17:32:00,
2013-02-10 12:37:00,36.9,-1.5,29.91,ENE,77,0.0,0.0,19,0.00,,CLR,0.04,VWS V14.00,2013-02-10 17:37:00,
2013-02-10 12:42:00,36.9,-1.5,29.91,ENE,63,2.2,2.2,19,0.00,,CLR,0.04,VWS V14.00,2013-02-10 17:42:00,
2013-02-10 12:47:00,36.1,-2.1,29.91,ENE,64,2.2,2.2,19,0.00,,CLR,0.04,VWS V14.00,2013-02-10 17:47:00,
2013-02-10 12:52:00,36.3,-2.0,29.91,SE,129,0.0,2.7,19,0.00,,CLR,0.04,VWS V14.00,2013-02-10 17:52:00,
2013-02-10 12:57:00,36.7,-1.7,29.91,SE,124,0.0,2.7,19,0.00,,CLR,0.04,VWS V14.00,2013-02-10 17:57:00,
2013-02-10 13:02:00,36.7,-1.7,29.91,ESE,122,0.0,2.7,19,0.00,,CLR,0.04,VWS V14.00,2013-02-10 18:02:00,
2013-02-10 13:07:00,37.6,-0.9,29.91,North,0,2.7,2.7,19,0.00,,CLR,0.04,VWS V14.00,2013-02-10 18:07:00,
2013-02-10 13:12:00,37.4,-1.1,29.91,North,0,0.0,2.7,19,0.00,,CLR,0.04,VWS V14.00,2013-02-10 18:12:00,
2013-02-10 13:18:00,37.2,-1.2,29.91,South,170,0.0,3.1,19,0.00,,CLR,0.04,VWS V14.00,2013-02-10 18:18:00,
2013-02-10 13:23:00,37.2,-1.2,29.91,SE,138,0.0,3.1,19,0.00,,CLR,0.04,VWS V14.00,2013-02-10 18:23:00,
2013-02-10 13:28:00,37.2,-1.2,29.91,ENE,71,0.0,0.0,19,0.00,,CLR,0.04,VWS V14.00,2013-02-10 18:28:00,
2013-02-10 13:33:00,36.9,-1.5,29.91,ENE,70,0.0,0.0,19,0.00,,CLR,0.04,VWS V14.00,2013-02-10 18:33:00,
2013-02-10 13:38:00,37.0,-1.4,29.88,SE,146,0.0,0.0,19,0.00,,CLR,0.04,VWS V14.00,2013-02-10 18:38:00,
2013-02-10 13:43:00,37.2,-1.2,29.88,SE,138,0.0,0.0,19,0.00,,CLR,0.04,VWS V14.00,2013-02-10 18:43:00,
2013-02-10 13:48:00,37.4,-1.1,29.88,ESE,103,2.2,3.6,19,0.00,,CLR,0.04,VWS V14.00,2013-02-10 18:48:00,
2013-02-10 13:53:00,37.4,-1.1,29.88,East,85,0.0,3.6,19,0.00,,CLR,0.04,VWS V14.00,2013-02-10 18:53:00,
2013-02-10 13:58:00,37.6,-0.9,29.88,SE,133,3.1,3.6,19,0.00,,CLR,0.04,VWS V14.00,2013-02-10 18:58:00,
2013-02-10 14:03:00,37.4,-1.1,29.88,NE,56,0.0,5.8,19,0.00,,CLR,0.04,VWS V14.00,2013-02-10 19:03:00,
2013-02-10 14:08:00,37.4,-1.1,29.88,SE,139,5.4,5.4,19,0.00,,CLR,0.04,VWS V14.00,2013-02-10 19:08:00,
2013-02-10 14:13:00,37.4,-1.1,29.88,SE,144,0.0,5.4,19,0.00,,CLR,0.04,VWS V14.00,2013-02-10 19:13:00,
2013-02-10 14:18:00,37.4,-1.1,29.88,ESE,103,2.2,5.4,19,0.00,,CLR,0.04,VWS V14.00,2013-02-10 19:18:00,
2013-02-10 14:23:00,37.2,-1.2,29.88,ESE,111,2.2,5.4,19,0.00,,CLR,0.04,VWS V14.00,2013-02-10 19:23:00,
2013-02-10 14:28:00,37.2,-1.2,29.88,NE,55,3.1,3.1,19,0.00,,CLR,0.04,VWS V14.00,2013-02-10 19:28:00,
2013-02-10 14:33:00,37.2,-1.2,29.88,ESE,108,2.7,3.6,19,0.00,,CLR,0.04,VWS V14.00,2013-02-10 19:33:00,
2013-02-10 14:38:00,37.4,-1.1,29.88,East,98,3.1,3.6,19,0.00,,CLR,0.04,VWS V14.00,2013-02-10 19:38:00,
2013-02-10 14:43:00,37.0,-1.4,29.88,SE,135,0.0,3.6,19,0.00,,CLR,0.04,VWS V14.00,2013-02-10 19:43:00,
2013-02-10 14:48:00,36.7,-1.7,29.88,North,10,2.7,2.7,19,0.00,,CLR,0.04,VWS V14.00,2013-02-10 19:48:00,
2013-02-10 14:53:00,36.3,-2.0,29.88,ENE,60,4.0,4.0,19,0.00,,CLR,0.04,VWS V14.00,2013-02-10 19:53:00,
2013-02-10 14:58:00,36.1,-2.1,29.88,ESE,109,0.0,4.0,19,0.00,,CLR,0.04,VWS V14.00,2013-02-10 19:58:00,
2013-02-10 15:03:00,36.0,-2.3,29.88,NNE,15,2.2,4.0,19,0.00,,CLR,0.04,VWS V14.00,2013-02-10 20:03:00,
2013-02-10 15:08:00,36.0,-2.3,29.88,NNE,22,0.0,2.7,19,0.00,,CLR,0.04,VWS V14.00,2013-02-10 20:08:00,
2013-02-10 15:13:00,35.8,-2.4,29.88,ENE,58,0.0,2.7,19,0.00,,CLR,0.04,VWS V14.00,2013-02-10 20:13:00,
2013-02-10 15:18:00,35.8,-2.4,29.88,NNE,12,3.6,3.6,19,0.00,,CLR,0.04,VWS V14.00,2013-02-10 20:18:00,
2013-02-10 15:23:00,36.0,-2.3,29.88,ESE,113,3.6,3.6,19,0.00,,CLR,0.04,VWS V14.00,2013-02-10 20:23:00,
2013-02-10 15:28:00,36.0,-2.3,29.88,East,100,2.2,3.6,19,0.00,,CLR,0.04,VWS V14.00,2013-02-10 20:28:00,
2013-02-10 15:33:00,35.8,-2.4,29.85,SE,146,0.0,3.6,19,0.00,,CLR,0.04,VWS V14.00,2013-02-10 20:33:00,
2013-02-10 15:38:00,35.8,-2.4,29.85,East,83,0.0,3.6,19,0.00,,CLR,0.04,VWS V14.00,2013-02-10 20:38:00,
2013-02-10 15:43:00,35.8,-2.4,29.85,SE,138,0.0,3.6,19,0.00,,CLR,0.04,VWS V14.00,2013-02-10 20:43:00,
2013-02-10 15:48:00,35.6,-2.6,29.88,SE,137,0.0,0.0,19,0.00,,CLR,0.04,VWS V14.00,2013-02-10 20:48:00,
2013-02-10 15:53:00,35.6,-2.6,29.88,SE,144,0.0,4.0,19,0.00,,CLR,0.04,VWS V14.00,2013-02-10 20:53:00,
2013-02-10 15:58:00,35.6,-2.6,29.88,East,84,0.0,4.0,19,0.00,,CLR,0.04,VWS V14.00,2013-02-10 20:58:00,
2013-02-10 16:03:00,35.6,-2.6,29.88,ENE,72,0.0,4.0,19,0.00,,CLR,0.04,VWS V14.00,2013-02-10 21:03:00,
2013-02-10 16:08:00,35.6,-2.6,29.88,SE,126,0.0,0.0,19,0.00,,CLR,0.04,VWS V14.00,2013-02-10 21:08:00,
2013-02-10 16:13:00,35.6,-2.6,29.88,SE,126,0.0,0.0,19,0.00,,CLR,0.04,VWS V14.00,2013-02-10 21:13:00,
2013-02-10 16:18:00,35.6,-2.6,29.88,SE,127,0.0,0.0,19,0.00,,CLR,0.04,VWS V14.00,2013-02-10 21:18:00,
2013-02-10 16:23:00,35.4,-1.6,29.88,SE,127,0.0,0.0,20,0.00,,CLR,0.04,VWS V14.00,2013-02-10 21:23:00,
2013-02-10 16:28:00,35.4,-1.6,29.88,SE,125,0.0,3.1,20,0.00,,CLR,0.04,VWS V14.00,2013-02-10 21:28:00,
2013-02-10 16:33:00,35.4,-1.6,29.85,SE,125,0.0,3.1,20,0.00,,CLR,0.04,VWS V14.00,2013-02-10 21:33:00,
2013-02-10 16:38:00,35.2,-1.8,29.85,SE,135,0.0,3.1,20,0.00,,CLR,0.04,VWS V14.00,2013-02-10 21:38:00,
2013-02-10 16:43:00,35.1,-2.0,29.85,SE,135,0.0,3.1,20,0.00,,CLR,0.04,VWS V14.00,2013-02-10 21:43:00,
2013-02-10 16:48:00,34.9,-2.1,29.85,SE,135,0.0,0.0,20,0.00,,CLR,0.04,VWS V14.00,2013-02-10 21:48:00,
2013-02-10 16:53:00,34.9,-2.1,29.85,SE,135,0.0,0.0,20,0.00,,CLR,0.04,VWS V14.00,2013-02-10 21:53:00,
2013-02-10 16:58:00,34.3,-2.6,29.85,SE,139,0.0,0.0,20,0.00,,CLR,0.04,VWS V14.00,2013-02-10 21:58:00,
2013-02-10 17:03:00,34.3,-2.6,29.85,SE,139,0.0,0.0,20,0.00,,CLR,0.04,VWS V14.00,2013-02-10 22:03:00,
2013-02-10 17:08:00,33.4,-3.3,29.85,SE,139,0.0,0.0,20,0.00,,CLR,0.04,VWS V14.00,2013-02-10 22:08:00,
2013-02-10 17:13:00,32.7,-3.9,29.85,SE,139,0.0,0.0,20,0.00,,CLR,0.04,VWS V14.00,2013-02-10 22:13:00,
2013-02-10 17:19:00,32.5,-4.1,29.85,SE,140,0.0,0.0,20,0.00,,CLR,0.04,VWS V14.00,2013-02-10 22:19:00,
2013-02-10 17:24:00,31.6,-4.8,29.88,SE,140,0.0,0.0,20,0.00,,CLR,0.04,VWS V14.00,2013-02-10 22:24:00,
2013-02-10 17:28:00,31.6,-4.8,29.88,SSE,150,0.0,0.0,20,0.00,,CLR,0.04,VWS V14.00,2013-02-10 22:28:00,
2013-02-10 17:34:00,30.0,-6.2,29.88,SSE,152,0.0,0.0,20,0.00,,CLR,0.04,VWS V14.00,2013-02-10 22:34:00,
2013-02-10 17:39:00,29.5,-6.6,29.88,SSE,152,0.0,0.0,20,0.00,,CLR,0.04,VWS V14.00,2013-02-10 22:39:00,
2013-02-10 17:44:00,28.9,-7.1,29.88,SSE,152,0.0,0.0,20,0.00,,CLR,0.04,VWS V14.00,2013-02-10 22:44:00,
2013-02-10 17:49:00,28.6,-7.4,29.88,SSE,152,0.0,0.0,20,0.00,,CLR,0.04,VWS V14.00,2013-02-10 22:49:00,
2013-02-10 17:54:00,28.2,-6.7,29.88,SE,144,2.7,3.1,21,0.00,,CLR,0.04,VWS V14.00,2013-02-10 22:54:00,
2013-02-10 17:59:00,27.9,-7.0,29.88,SE,145,2.7,3.1,21,0.00,,CLR,0.04,VWS V14.00,2013-02-10 22:59:00,
2013-02-10 18:04:00,27.7,-7.2,29.88,SE,146,3.1,3.1,21,0.00,,CLR,0.04,VWS V14.00,2013-02-10 23:04:00,
2013-02-10 18:09:00,27.0,-7.8,29.88,SE,146,2.7,2.7,21,0.00,,CLR,0.04,VWS V14.00,2013-02-10 23:09:00,
2013-02-10 18:14:00,26.8,-7.9,29.88,SE,146,2.7,2.7,21,0.00,,CLR,0.04,VWS V14.00,2013-02-10 23:14:00,
2013-02-10 18:19:00,26.4,-8.2,29.88,SE,146,2.2,2.7,21,0.00,,CLR,0.04,VWS V14.00,2013-02-10 23:19:00,
2013-02-10 18:24:00,26.2,-8.4,29.88,SE,146,2.7,3.1,21,0.00,,CLR,0.04,VWS V14.00,2013-02-10 23:24:00,
2013-02-10 18:29:00,26.1,-8.5,29.88,SE,146,0.0,2.7,21,0.00,,CLR,0.04,VWS V14.00,2013-02-10 23:29:00,
2013-02-10 18:34:00,25.9,-8.7,29.88,SE,146,2.7,2.7,21,0.00,,CLR,0.04,VWS V14.00,2013-02-10 23:34:00,
2013-02-10 18:39:00,25.7,-8.8,29.88,SE,146,0.0,2.7,21,0.00,,CLR,0.04,VWS V14.00,2013-02-10 23:39:00,
2013-02-10 18:44:00,25.5,-9.0,29.88,SE,146,0.0,2.7,21,0.00,,CLR,0.04,VWS V14.00,2013-02-10 23:44:00,
2013-02-10 18:49:00,25.3,-9.1,29.88,SE,146,0.0,0.0,21,0.00,,CLR,0.04,VWS V14.00,2013-02-10 23:49:00,
2013-02-10 18:54:00,25.3,-9.1,29.88,SSE,155,0.0,0.0,21,0.00,,CLR,0.04,VWS V14.00,2013-02-10 23:54:00,
2013-02-10 18:59:00,25.2,-9.3,29.88,SSE,155,0.0,0.0,21,0.00,,CLR,0.04,VWS V14.00,2013-02-10 23:59:00,
2013-02-10 19:04:00,25.2,-9.3,29.88,SSE,155,0.0,0.0,21,0.00,,CLR,0.04,VWS V14.00,2013-02-11 00:04:00,
2013-02-10 19:09:00,25.0,-9.4,29.88,SSE,155,0.0,0.0,21,0.00,,CLR,0.04,VWS V14.00,2013-02-11 00:09:00,
2013-02-10 19:14:00,25.0,-9.4,29.88,SSE,155,0.0,0.0,21,0.00,,CLR,0.04,VWS V14.00,2013-02-11 00:14:00,
2013-02-10 19:19:00,25.0,-9.4,29.88,SSE,155,0.0,0.0,21,0.00,,CLR,0.04,VWS V14.00,2013-02-11 00:19:00,
2013-02-10 19:24:00,24.8,-8.6,29.88,SSE,155,0.0,0.0,22,0.00,,CLR,0.04,VWS V14.00,2013-02-11 00:24:00,
2013-02-10 19:29:00,24.8,-8.6,29.88,SSE,155,0.0,0.0,22,0.00,,CLR,0.04,VWS V14.00,2013-02-11 00:29:00,
2013-02-10 19:34:00,24.4,-8.9,29.88,SSE,155,0.0,0.0,22,0.00,,CLR,0.04,VWS V14.00,2013-02-11 00:34:00,
2013-02-10 19:39:00,24.4,-8.9,29.88,SSE,155,0.0,0.0,22,0.00,,CLR,0.04,VWS V14.00,2013-02-11 00:39:00,
2013-02-10 19:44:00,24.3,-9.1,29.88,SSE,155,0.0,0.0,22,0.00,,CLR,0.04,VWS V14.00,2013-02-11 00:44:00,
2013-02-10 19:49:00,24.3,-9.1,29.88,SSE,155,0.0,0.0,22,0.00,,CLR,0.04,VWS V14.00,2013-02-11 00:49:00,
2013-02-10 19:54:00,24.3,-9.1,29.88,SSE,155,0.0,0.0,22,0.00,,CLR,0.00,VWS V14.00,2013-02-11 00:54:00,
2013-02-10 19:59:00,24.4,-8.9,29.88,SSE,155,0.0,0.0,22,0.00,,CLR,0.04,VWS V14.00,2013-02-11 00:59:00,
2013-02-10 20:04:00,24.4,-8.9,29.88,SSE,155,0.0,0.0,22,0.00,,CLR,0.04,VWS V14.00,2013-02-11 01:04:00,
2013-02-10 20:09:00,24.6,-8.8,29.88,SSE,155,0.0,0.0,22,0.00,,CLR,0.04,VWS V14.00,2013-02-11 01:09:00,
2013-02-10 20:14:00,24.8,-8.6,29.88,SSE,155,0.0,0.0,22,0.00,,CLR,0.04,VWS V14.00,2013-02-11 01:14:00,
2013-02-10 20:19:00,24.8,-8.6,29.88,SSE,155,0.0,0.0,22,0.00,,CLR,0.04,VWS V14.00,2013-02-11 01:19:00,
2013-02-10 20:24:00,25.3,-9.1,29.88,SSE,155,0.0,0.0,21,0.00,,CLR,0.04,VWS V14.00,2013-02-11 01:24:00,
2013-02-10 20:29:00,25.3,-9.1,29.88,SSE,155,0.0,0.0,21,0.00,,CLR,0.04,VWS V14.00,2013-02-11 01:29:00,
2013-02-10 20:34:00,25.3,-9.1,29.88,SSE,155,0.0,0.0,21,0.00,,CLR,0.04,VWS V14.00,2013-02-11 01:34:00,
2013-02-10 20:39:00,25.3,-9.1,29.85,SSE,155,0.0,0.0,21,0.00,,CLR,0.04,VWS V14.00,2013-02-11 01:39:00,
2013-02-10 20:44:00,25.2,-9.3,29.85,SSE,155,0.0,0.0,21,0.00,,CLR,0.04,VWS V14.00,2013-02-11 01:44:00,
2013-02-10 20:49:00,25.0,-9.4,29.85,SSE,155,0.0,0.0,21,0.00,,CLR,0.04,VWS V14.00,2013-02-11 01:49:00,
2013-02-10 20:54:00,25.0,-9.4,29.85,SSE,155,0.0,0.0,21,0.00,,CLR,0.04,VWS V14.00,2013-02-11 01:54:00,
2013-02-10 20:59:00,24.6,-7.0,29.85,SSE,155,0.0,0.0,24,0.00,,CLR,0.04,VWS V14.00,2013-02-11 01:59:00,
2013-02-10 21:04:00,24.6,-7.0,29.85,SSE,155,0.0,0.0,24,0.00,,CLR,0.04,VWS V14.00,2013-02-11 02:04:00,
2013-02-10 21:09:00,24.4,-7.2,29.85,SSE,155,0.0,0.0,24,0.00,,CLR,0.04,VWS V14.00,2013-02-11 02:09:00,
2013-02-10 21:14:00,24.3,-7.3,29.85,SSE,155,0.0,0.0,24,0.00,,CLR,0.04,VWS V14.00,2013-02-11 02:14:00,
2013-02-10 21:19:00,24.3,-7.3,29.85,SSE,155,0.0,0.0,24,0.00,,CLR,0.04,VWS V14.00,2013-02-11 02:19:00,
2013-02-10 21:24:00,24.1,-7.5,29.85,SSE,155,0.0,0.0,24,0.00,,CLR,0.04,VWS V14.00,2013-02-11 02:24:00,
2013-02-10 21:29:00,24.1,-7.5,29.85,SSE,155,0.0,0.0,24,0.00,,CLR,0.04,VWS V14.00,2013-02-11 02:29:00,
2013-02-10 21:34:00,24.1,-7.5,29.85,SSE,155,0.0,0.0,24,0.00,,CLR,0.04,VWS V14.00,2013-02-11 02:34:00,
2013-02-10 21:39:00,23.9,-7.6,29.85,SSE,155,0.0,0.0,24,0.00,,CLR,0.04,VWS V14.00,2013-02-11 02:39:00,
2013-02-10 21:44:00,23.9,-7.6,29.85,SSE,155,0.0,0.0,24,0.00,,CLR,0.04,VWS V14.00,2013-02-11 02:44:00,
2013-02-10 21:49:00,23.7,-7.8,29.85,SSE,155,0.0,0.0,24,0.00,,CLR,0.04,VWS V14.00,2013-02-11 02:49:00,
2013-02-10 21:54:00,23.9,-7.6,29.85,SSE,155,0.0,0.0,24,0.00,,CLR,0.04,VWS V14.00,2013-02-11 02:54:00,
2013-02-10 21:59:00,23.9,-7.6,29.85,SSE,155,0.0,0.0,24,0.00,,CLR,0.04,VWS V14.00,2013-02-11 02:59:00,
2013-02-10 22:04:00,24.1,-7.5,29.85,SSE,155,0.0,0.0,24,0.00,,CLR,0.04,VWS V14.00,2013-02-11 03:04:00,
2013-02-10 22:09:00,24.1,-7.5,29.85,SSE,155,0.0,0.0,24,0.00,,CLR,0.04,VWS V14.00,2013-02-11 03:09:00,
2013-02-10 22:14:00,24.4,-7.2,29.85,SSE,155,0.0,0.0,24,0.00,,CLR,0.04,VWS V14.00,2013-02-11 03:14:00,
2013-02-10 22:19:00,24.4,-7.2,29.85,SSE,155,0.0,0.0,24,0.00,,CLR,0.04,VWS V14.00,2013-02-11 03:19:00,
2013-02-10 22:24:00,24.6,-7.0,29.85,SSE,155,0.0,0.0,24,0.00,,CLR,0.04,VWS V14.00,2013-02-11 03:24:00,
2013-02-10 22:29:00,24.8,-6.9,29.85,SSE,155,0.0,0.0,24,0.00,,CLR,0.04,VWS V14.00,2013-02-11 03:29:00,
2013-02-10 22:34:00,25.0,-6.7,29.85,SSE,155,0.0,0.0,24,0.00,,CLR,0.04,VWS V14.00,2013-02-11 03:34:00,
2013-02-10 22:39:00,25.0,-6.7,29.85,SSE,155,0.0,0.0,24,0.00,,CLR,0.04,VWS V14.00,2013-02-11 03:39:00,
2013-02-10 22:44:00,25.0,-6.7,29.85,SSE,155,0.0,0.0,24,0.00,,CLR,0.04,VWS V14.00,2013-02-11 03:44:00,
2013-02-10 22:49:00,25.3,-6.4,29.83,SSE,155,0.0,0.0,24,0.00,,CLR,0.04,VWS V14.00,2013-02-11 03:49:00,
2013-02-10 22:54:00,25.3,-6.4,29.83,SSE,155,0.0,0.0,24,0.00,,CLR,0.04,VWS V14.00,2013-02-11 03:54:00,
2013-02-10 22:59:00,25.3,-6.4,29.83,SSE,155,0.0,0.0,24,0.00,,CLR,0.04,VWS V14.00,2013-02-11 03:59:00,
2013-02-10 23:04:00,25.5,-6.2,29.83,SSE,155,0.0,0.0,24,0.00,,CLR,0.04,VWS V14.00,2013-02-11 04:04:00,
2013-02-10 23:09:00,25.5,-6.2,29.83,SSE,155,0.0,0.0,24,0.00,,CLR,0.04,VWS V14.00,2013-02-11 04:09:00,
2013-02-10 23:14:00,25.5,-6.2,29.83,SSE,155,0.0,0.0,24,0.00,,CLR,0.04,VWS V14.00,2013-02-11 04:14:00,
2013-02-10 23:19:00,25.7,-6.1,29.83,SSE,155,0.0,0.0,24,0.00,,CLR,0.04,VWS V14.00,2013-02-11 04:19:00,
2013-02-10 23:24:00,25.7,-6.1,29.83,SSE,155,0.0,0.0,24,0.00,,CLR,0.04,VWS V14.00,2013-02-11 04:24:00,
2013-02-10 23:29:00,25.7,-6.1,29.83,SSE,155,0.0,0.0,24,0.00,,CLR,0.04,VWS V14.00,2013-02-11 04:29:00,
2013-02-10 23:34:00,25.7,-6.1,29.83,SSE,155,0.0,0.0,24,0.00,,CLR,0.04,VWS V14.00,2013-02-11 04:34:00,
2013-02-10 23:39:00,25.9,-5.9,29.83,SSE,155,0.0,0.0,24,0.00,,CLR,0.04,VWS V14.00,2013-02-11 04:39:00,
2013-02-10 23:44:00,25.9,-5.9,29.83,SSE,155,0.0,0.0,24,0.00,,CLR,0.04,VWS V14.00,2013-02-11 04:44:00,
2013-02-10 23:49:00,26.1,-5.8,29.83,SSE,155,0.0,0.0,24,0.00,,CLR,0.04,VWS V14.00,2013-02-11 04:49:00,
2013-02-10 23:54:00,26.1,-5.8,29.83,SSE,155,0.0,0.0,24,0.00,,CLR,0.04,VWS V14.00,2013-02-11 04:54:00,
2013-02-10 23:59:00,26.1,-5.8,29.83,SSE,155,0.0,0.0,24,0.00,,CLR,0.04,VWS V14.00,2013-02-11 04:59:00,